sensor_id;sensor_type;location;lat;lon;timestamp;temperature;humidity
66873;HTU21D;53781;51.090;5.884;2022-11-15T00:00:08;11.00;80.46
66873;HTU21D;53781;51.090;5.884;2022-11-15T00:00:42;10.99;80.51
66873;HTU21D;53781;51.090;5.884;2022-11-15T00:01:17;11.01;80.59
66873;HTU21D;53781;51.090;5.884;2022-11-15T00:01:51;11.03;80.73
66873;HTU21D;53781;51.090;5.884;2022-11-15T00:02:24;11.04;80.81
66873;HTU21D;53781;51.090;5.884;2022-11-15T00:02:58;11.07;80.91
66873;HTU21D;53781;51.090;5.884;2022-11-15T00:03:30;11.08;81.03
66873;HTU21D;53781;51.090;5.884;2022-11-15T00:04:04;11.09;81.04
66873;HTU21D;53781;51.090;5.884;2022-11-15T00:04:38;11.13;81.20
66873;HTU21D;53781;51.090;5.884;2022-11-15T00:05:11;11.14;81.32
66873;HTU21D;53781;51.090;5.884;2022-11-15T00:05:45;11.15;81.38
66873;HTU21D;53781;51.090;5.884;2022-11-15T00:06:19;11.18;81.49
66873;HTU21D;53781;51.090;5.884;2022-11-15T00:06:52;11.20;81.56
66873;HTU21D;53781;51.090;5.884;2022-11-15T00:07:26;11.24;81.55
66873;HTU21D;53781;51.090;5.884;2022-11-15T00:07:59;11.25;81.63
66873;HTU21D;53781;51.090;5.884;2022-11-15T00:08:32;11.28;81.65
66873;HTU21D;53781;51.090;5.884;2022-11-15T00:09:06;11.30;81.74
66873;HTU21D;53781;51.090;5.884;2022-11-15T00:09:39;11.31;81.72
66873;HTU21D;53781;51.090;5.884;2022-11-15T00:10:13;11.33;81.80
66873;HTU21D;53781;51.090;5.884;2022-11-15T00:10:59;11.37;81.91
66873;HTU21D;53781;51.090;5.884;2022-11-15T00:11:33;11.37;81.97
66873;HTU21D;53781;51.090;5.884;2022-11-15T00:12:06;11.41;82.00
66873;HTU21D;53781;51.090;5.884;2022-11-15T00:12:39;11.40;82.04
66873;HTU21D;53781;51.090;5.884;2022-11-15T00:13:13;11.42;82.05
66873;HTU21D;53781;51.090;5.884;2022-11-15T00:13:46;11.44;82.10
66873;HTU21D;53781;51.090;5.884;2022-11-15T00:14:19;11.46;82.07
66873;HTU21D;53781;51.090;5.884;2022-11-15T00:14:53;11.46;82.10
66873;HTU21D;53781;51.090;5.884;2022-11-15T00:15:26;11.49;82.23
66873;HTU21D;53781;51.090;5.884;2022-11-15T00:16:01;11.52;82.26
66873;HTU21D;53781;51.090;5.884;2022-11-15T00:16:34;11.52;82.23
66873;HTU21D;53781;51.090;5.884;2022-11-15T00:17:07;11.55;82.32
66873;HTU21D;53781;51.090;5.884;2022-11-15T00:17:40;11.57;82.34
66873;HTU21D;53781;51.090;5.884;2022-11-15T00:18:15;11.59;82.39
66873;HTU21D;53781;51.090;5.884;2022-11-15T00:18:49;11.60;82.39
66873;HTU21D;53781;51.090;5.884;2022-11-15T00:19:22;11.61;82.48
66873;HTU21D;53781;51.090;5.884;2022-11-15T00:19:55;11.62;82.47
66873;HTU21D;53781;51.090;5.884;2022-11-15T00:20:29;11.63;82.45
66873;HTU21D;53781;51.090;5.884;2022-11-15T00:21:05;11.66;82.42
66873;HTU21D;53781;51.090;5.884;2022-11-15T00:21:39;11.70;82.36
66873;HTU21D;53781;51.090;5.884;2022-11-15T00:22:12;11.70;82.42
66873;HTU21D;53781;51.090;5.884;2022-11-15T00:22:45;11.71;82.49
66873;HTU21D;53781;51.090;5.884;2022-11-15T00:23:18;11.72;82.52
66873;HTU21D;53781;51.090;5.884;2022-11-15T00:23:52;11.74;82.59
66873;HTU21D;53781;51.090;5.884;2022-11-15T00:24:25;11.76;82.58
66873;HTU21D;53781;51.090;5.884;2022-11-15T00:24:59;11.77;82.55
66873;HTU21D;53781;51.090;5.884;2022-11-15T00:25:32;11.76;82.56
66873;HTU21D;53781;51.090;5.884;2022-11-15T00:26:08;11.79;82.62
66873;HTU21D;53781;51.090;5.884;2022-11-15T00:26:44;11.82;82.55
66873;HTU21D;53781;51.090;5.884;2022-11-15T00:27:17;11.84;82.57
66873;HTU21D;53781;51.090;5.884;2022-11-15T00:27:55;11.87;82.60
66873;HTU21D;53781;51.090;5.884;2022-11-15T00:28:29;11.88;82.55
66873;HTU21D;53781;51.090;5.884;2022-11-15T00:29:02;11.89;82.58
66873;HTU21D;53781;51.090;5.884;2022-11-15T00:29:35;11.89;82.52
66873;HTU21D;53781;51.090;5.884;2022-11-15T00:30:11;11.91;82.46
66873;HTU21D;53781;51.090;5.884;2022-11-15T00:30:45;11.93;82.47
66873;HTU21D;53781;51.090;5.884;2022-11-15T00:31:19;11.93;82.46
66873;HTU21D;53781;51.090;5.884;2022-11-15T00:31:52;11.96;82.49
66873;HTU21D;53781;51.090;5.884;2022-11-15T00:32:25;11.97;82.45
66873;HTU21D;53781;51.090;5.884;2022-11-15T00:33:03;11.99;82.44
66873;HTU21D;53781;51.090;5.884;2022-11-15T00:33:37;11.99;82.46
66873;HTU21D;53781;51.090;5.884;2022-11-15T00:34:10;11.99;82.39
66873;HTU21D;53781;51.090;5.884;2022-11-15T00:34:44;12.01;82.44
66873;HTU21D;53781;51.090;5.884;2022-11-15T00:35:18;12.02;82.35
66873;HTU21D;53781;51.090;5.884;2022-11-15T00:35:51;12.04;82.42
66873;HTU21D;53781;51.090;5.884;2022-11-15T00:36:24;12.03;82.42
66873;HTU21D;53781;51.090;5.884;2022-11-15T00:36:58;12.05;82.39
66873;HTU21D;53781;51.090;5.884;2022-11-15T00:37:31;12.05;82.34
66873;HTU21D;53781;51.090;5.884;2022-11-15T00:38:05;12.07;82.36
66873;HTU21D;53781;51.090;5.884;2022-11-15T00:38:40;12.10;82.32
66873;HTU21D;53781;51.090;5.884;2022-11-15T00:39:13;12.10;82.33
66873;HTU21D;53781;51.090;5.884;2022-11-15T00:39:46;12.08;82.33
66873;HTU21D;53781;51.090;5.884;2022-11-15T00:40:20;12.11;82.39
66873;HTU21D;53781;51.090;5.884;2022-11-15T00:40:53;12.13;82.36
66873;HTU21D;53781;51.090;5.884;2022-11-15T00:41:26;12.14;82.39
66873;HTU21D;53781;51.090;5.884;2022-11-15T00:41:59;12.15;82.37
66873;HTU21D;53781;51.090;5.884;2022-11-15T00:42:32;12.18;82.38
66873;HTU21D;53781;51.090;5.884;2022-11-15T00:43:06;12.17;82.31
66873;HTU21D;53781;51.090;5.884;2022-11-15T00:43:39;12.20;82.26
66873;HTU21D;53781;51.090;5.884;2022-11-15T00:44:12;12.21;82.26
66873;HTU21D;53781;51.090;5.884;2022-11-15T00:44:46;12.23;82.26
66873;HTU21D;53781;51.090;5.884;2022-11-15T00:45:19;12.22;82.17
66873;HTU21D;53781;51.090;5.884;2022-11-15T00:45:53;12.25;82.13
66873;HTU21D;53781;51.090;5.884;2022-11-15T00:46:26;12.27;82.10
66873;HTU21D;53781;51.090;5.884;2022-11-15T00:46:59;12.26;82.11
66873;HTU21D;53781;51.090;5.884;2022-11-15T00:47:33;12.26;82.13
66873;HTU21D;53781;51.090;5.884;2022-11-15T00:48:07;12.29;82.09
66873;HTU21D;53781;51.090;5.884;2022-11-15T00:48:40;12.30;82.11
66873;HTU21D;53781;51.090;5.884;2022-11-15T00:49:13;12.32;82.10
66873;HTU21D;53781;51.090;5.884;2022-11-15T00:49:46;12.29;82.09
66873;HTU21D;53781;51.090;5.884;2022-11-15T00:50:19;12.31;82.07
66873;HTU21D;53781;51.090;5.884;2022-11-15T00:50:52;12.32;82.11
66873;HTU21D;53781;51.090;5.884;2022-11-15T00:51:26;12.33;82.04
66873;HTU21D;53781;51.090;5.884;2022-11-15T00:51:59;12.34;82.07
66873;HTU21D;53781;51.090;5.884;2022-11-15T00:52:33;12.35;82.04
66873;HTU21D;53781;51.090;5.884;2022-11-15T00:53:06;12.36;82.06
66873;HTU21D;53781;51.090;5.884;2022-11-15T00:53:40;12.37;81.97
66873;HTU21D;53781;51.090;5.884;2022-11-15T00:54:12;12.37;81.99
66873;HTU21D;53781;51.090;5.884;2022-11-15T00:54:46;12.37;82.05
66873;HTU21D;53781;51.090;5.884;2022-11-15T00:55:19;12.38;82.07
66873;HTU21D;53781;51.090;5.884;2022-11-15T00:55:53;12.40;82.04
66873;HTU21D;53781;51.090;5.884;2022-11-15T00:56:26;12.40;82.02
66873;HTU21D;53781;51.090;5.884;2022-11-15T00:56:59;12.41;82.02
66873;HTU21D;53781;51.090;5.884;2022-11-15T00:57:33;12.41;82.04
66873;HTU21D;53781;51.090;5.884;2022-11-15T00:58:06;12.41;82.03
66873;HTU21D;53781;51.090;5.884;2022-11-15T00:58:40;12.42;82.07
66873;HTU21D;53781;51.090;5.884;2022-11-15T00:59:13;12.42;82.10
66873;HTU21D;53781;51.090;5.884;2022-11-15T00:59:46;12.42;82.07
66873;HTU21D;53781;51.090;5.884;2022-11-15T01:00:19;12.45;82.12
66873;HTU21D;53781;51.090;5.884;2022-11-15T01:00:53;12.45;82.14
66873;HTU21D;53781;51.090;5.884;2022-11-15T01:01:27;12.44;82.09
66873;HTU21D;53781;51.090;5.884;2022-11-15T01:02:01;12.46;82.12
66873;HTU21D;53781;51.090;5.884;2022-11-15T01:02:34;12.45;82.03
66873;HTU21D;53781;51.090;5.884;2022-11-15T01:03:08;12.45;82.04
66873;HTU21D;53781;51.090;5.884;2022-11-15T01:03:41;12.47;82.03
66873;HTU21D;53781;51.090;5.884;2022-11-15T01:04:15;12.46;82.04
66873;HTU21D;53781;51.090;5.884;2022-11-15T01:04:48;12.46;82.14
66873;HTU21D;53781;51.090;5.884;2022-11-15T01:05:22;12.47;82.19
66873;HTU21D;53781;51.090;5.884;2022-11-15T01:05:59;12.48;82.17
66873;HTU21D;53781;51.090;5.884;2022-11-15T01:06:32;12.49;82.16
66873;HTU21D;53781;51.090;5.884;2022-11-15T01:07:06;12.51;82.12
66873;HTU21D;53781;51.090;5.884;2022-11-15T01:07:39;12.51;82.20
66873;HTU21D;53781;51.090;5.884;2022-11-15T01:08:14;12.51;82.17
66873;HTU21D;53781;51.090;5.884;2022-11-15T01:08:49;12.56;82.11
66873;HTU21D;53781;51.090;5.884;2022-11-15T01:09:22;12.53;82.15
66873;HTU21D;53781;51.090;5.884;2022-11-15T01:09:55;12.53;82.13
66873;HTU21D;53781;51.090;5.884;2022-11-15T01:10:28;12.57;82.12
66873;HTU21D;53781;51.090;5.884;2022-11-15T01:11:08;12.56;82.05
66873;HTU21D;53781;51.090;5.884;2022-11-15T01:11:42;12.57;82.07
66873;HTU21D;53781;51.090;5.884;2022-11-15T01:12:15;12.58;82.00
66873;HTU21D;53781;51.090;5.884;2022-11-15T01:12:49;12.58;81.97
66873;HTU21D;53781;51.090;5.884;2022-11-15T01:13:22;12.59;82.01
66873;HTU21D;53781;51.090;5.884;2022-11-15T01:13:56;12.59;81.96
66873;HTU21D;53781;51.090;5.884;2022-11-15T01:14:29;12.59;81.94
66873;HTU21D;53781;51.090;5.884;2022-11-15T01:15:03;12.59;81.98
66873;HTU21D;53781;51.090;5.884;2022-11-15T01:15:40;12.59;81.98
66873;HTU21D;53781;51.090;5.884;2022-11-15T01:16:17;12.59;82.02
66873;HTU21D;53781;51.090;5.884;2022-11-15T01:16:51;12.59;82.01
66873;HTU21D;53781;51.090;5.884;2022-11-15T01:17:24;12.61;82.05
66873;HTU21D;53781;51.090;5.884;2022-11-15T01:17:57;12.61;82.04
66873;HTU21D;53781;51.090;5.884;2022-11-15T01:18:31;12.61;82.01
66873;HTU21D;53781;51.090;5.884;2022-11-15T01:19:04;12.60;81.95
66873;HTU21D;53781;51.090;5.884;2022-11-15T01:19:37;12.62;82.09
66873;HTU21D;53781;51.090;5.884;2022-11-15T01:20:13;12.62;82.04
66873;HTU21D;53781;51.090;5.884;2022-11-15T01:20:46;12.62;82.00
66873;HTU21D;53781;51.090;5.884;2022-11-15T01:21:19;12.63;81.97
66873;HTU21D;53781;51.090;5.884;2022-11-15T01:21:52;12.63;82.08
66873;HTU21D;53781;51.090;5.884;2022-11-15T01:22:26;12.64;82.06
66873;HTU21D;53781;51.090;5.884;2022-11-15T01:22:59;12.63;82.04
66873;HTU21D;53781;51.090;5.884;2022-11-15T01:23:33;12.64;82.02
66873;HTU21D;53781;51.090;5.884;2022-11-15T01:24:07;12.64;82.01
66873;HTU21D;53781;51.090;5.884;2022-11-15T01:24:42;12.63;82.04
66873;HTU21D;53781;51.090;5.884;2022-11-15T01:25:15;12.66;82.01
66873;HTU21D;53781;51.090;5.884;2022-11-15T01:25:48;12.64;81.96
66873;HTU21D;53781;51.090;5.884;2022-11-15T01:26:23;12.65;81.98
66873;HTU21D;53781;51.090;5.884;2022-11-15T01:26:57;12.66;81.96
66873;HTU21D;53781;51.090;5.884;2022-11-15T01:27:30;12.63;81.95
66873;HTU21D;53781;51.090;5.884;2022-11-15T01:28:04;12.65;81.96
66873;HTU21D;53781;51.090;5.884;2022-11-15T01:28:39;12.66;81.88
66873;HTU21D;53781;51.090;5.884;2022-11-15T01:29:13;12.66;81.92
66873;HTU21D;53781;51.090;5.884;2022-11-15T01:29:46;12.64;81.91
66873;HTU21D;53781;51.090;5.884;2022-11-15T01:30:20;12.65;81.94
66873;HTU21D;53781;51.090;5.884;2022-11-15T01:30:53;12.66;82.04
66873;HTU21D;53781;51.090;5.884;2022-11-15T01:31:26;12.67;81.89
66873;HTU21D;53781;51.090;5.884;2022-11-15T01:32:00;12.67;81.90
66873;HTU21D;53781;51.090;5.884;2022-11-15T01:32:33;12.69;81.93
66873;HTU21D;53781;51.090;5.884;2022-11-15T01:33:07;12.69;81.90
66873;HTU21D;53781;51.090;5.884;2022-11-15T01:33:41;12.69;81.90
66873;HTU21D;53781;51.090;5.884;2022-11-15T01:34:14;12.70;81.84
66873;HTU21D;53781;51.090;5.884;2022-11-15T01:34:48;12.69;81.86
66873;HTU21D;53781;51.090;5.884;2022-11-15T01:35:21;12.67;81.84
66873;HTU21D;53781;51.090;5.884;2022-11-15T01:35:55;12.70;81.89
66873;HTU21D;53781;51.090;5.884;2022-11-15T01:36:28;12.69;81.85
66873;HTU21D;53781;51.090;5.884;2022-11-15T01:37:02;12.65;81.83
66873;HTU21D;53781;51.090;5.884;2022-11-15T01:37:35;12.66;81.88
66873;HTU21D;53781;51.090;5.884;2022-11-15T01:38:09;12.67;81.87
66873;HTU21D;53781;51.090;5.884;2022-11-15T01:38:42;12.66;81.86
66873;HTU21D;53781;51.090;5.884;2022-11-15T01:39:16;12.65;81.86
66873;HTU21D;53781;51.090;5.884;2022-11-15T01:39:50;12.66;81.85
66873;HTU21D;53781;51.090;5.884;2022-11-15T01:40:23;12.66;81.81
66873;HTU21D;53781;51.090;5.884;2022-11-15T01:40:56;12.66;81.87
66873;HTU21D;53781;51.090;5.884;2022-11-15T01:41:32;12.66;81.84
66873;HTU21D;53781;51.090;5.884;2022-11-15T01:42:05;12.67;81.80
66873;HTU21D;53781;51.090;5.884;2022-11-15T01:42:39;12.67;81.83
66873;HTU21D;53781;51.090;5.884;2022-11-15T01:43:23;12.64;81.83
66873;HTU21D;53781;51.090;5.884;2022-11-15T01:45:14;12.65;81.84
66873;HTU21D;53781;51.090;5.884;2022-11-15T01:45:58;12.64;81.83
66873;HTU21D;53781;51.090;5.884;2022-11-15T01:46:35;12.64;81.85
66873;HTU21D;53781;51.090;5.884;2022-11-15T01:47:43;12.64;81.85
66873;HTU21D;53781;51.090;5.884;2022-11-15T01:48:18;12.63;81.84
66873;HTU21D;53781;51.090;5.884;2022-11-15T01:48:54;12.64;81.85
66873;HTU21D;53781;51.090;5.884;2022-11-15T01:49:33;12.63;81.84
66873;HTU21D;53781;51.090;5.884;2022-11-15T01:50:11;12.64;81.88
66873;HTU21D;53781;51.090;5.884;2022-11-15T01:50:45;12.62;81.92
66873;HTU21D;53781;51.090;5.884;2022-11-15T01:51:21;12.63;81.93
66873;HTU21D;53781;51.090;5.884;2022-11-15T01:51:57;12.63;81.99
66873;HTU21D;53781;51.090;5.884;2022-11-15T01:52:33;12.65;81.97
66873;HTU21D;53781;51.090;5.884;2022-11-15T01:53:07;12.64;82.01
66873;HTU21D;53781;51.090;5.884;2022-11-15T01:53:45;12.65;82.01
66873;HTU21D;53781;51.090;5.884;2022-11-15T01:54:21;12.65;82.02
66873;HTU21D;53781;51.090;5.884;2022-11-15T01:55:16;12.66;81.96
66873;HTU21D;53781;51.090;5.884;2022-11-15T01:55:52;12.66;81.96
66873;HTU21D;53781;51.090;5.884;2022-11-15T01:56:30;12.65;82.00
66873;HTU21D;53781;51.090;5.884;2022-11-15T01:57:09;12.67;82.05
66873;HTU21D;53781;51.090;5.884;2022-11-15T01:57:46;12.70;81.94
66873;HTU21D;53781;51.090;5.884;2022-11-15T01:58:20;12.70;82.01
66873;HTU21D;53781;51.090;5.884;2022-11-15T01:58:57;12.70;82.03
66873;HTU21D;53781;51.090;5.884;2022-11-15T01:59:31;12.71;82.04
66873;HTU21D;53781;51.090;5.884;2022-11-15T02:00:06;12.72;81.95
66873;HTU21D;53781;51.090;5.884;2022-11-15T02:00:40;12.70;81.97
66873;HTU21D;53781;51.090;5.884;2022-11-15T02:01:14;12.72;81.91
66873;HTU21D;53781;51.090;5.884;2022-11-15T02:01:47;12.71;81.95
66873;HTU21D;53781;51.090;5.884;2022-11-15T02:02:21;12.71;81.91
66873;HTU21D;53781;51.090;5.884;2022-11-15T02:02:54;12.70;81.97
66873;HTU21D;53781;51.090;5.884;2022-11-15T02:03:39;12.73;81.95
66873;HTU21D;53781;51.090;5.884;2022-11-15T02:04:24;12.72;81.94
66873;HTU21D;53781;51.090;5.884;2022-11-15T02:05:01;12.73;82.02
66873;HTU21D;53781;51.090;5.884;2022-11-15T02:05:36;12.74;81.97
66873;HTU21D;53781;51.090;5.884;2022-11-15T02:06:10;12.75;81.94
66873;HTU21D;53781;51.090;5.884;2022-11-15T02:06:45;12.75;81.95
66873;HTU21D;53781;51.090;5.884;2022-11-15T02:07:21;12.75;81.85
66873;HTU21D;53781;51.090;5.884;2022-11-15T02:07:55;12.76;81.93
66873;HTU21D;53781;51.090;5.884;2022-11-15T02:08:29;12.76;81.86
66873;HTU21D;53781;51.090;5.884;2022-11-15T02:09:02;12.76;81.91
66873;HTU21D;53781;51.090;5.884;2022-11-15T02:09:37;12.76;81.84
66873;HTU21D;53781;51.090;5.884;2022-11-15T02:10:17;12.77;81.92
66873;HTU21D;53781;51.090;5.884;2022-11-15T02:10:51;12.77;81.95
66873;HTU21D;53781;51.090;5.884;2022-11-15T02:11:25;12.78;82.01
66873;HTU21D;53781;51.090;5.884;2022-11-15T02:12:00;12.79;82.03
66873;HTU21D;53781;51.090;5.884;2022-11-15T02:12:34;12.80;82.00
66873;HTU21D;53781;51.090;5.884;2022-11-15T02:13:07;12.81;82.08
66873;HTU21D;53781;51.090;5.884;2022-11-15T02:13:42;12.80;82.06
66873;HTU21D;53781;51.090;5.884;2022-11-15T02:14:19;12.82;81.98
66873;HTU21D;53781;51.090;5.884;2022-11-15T02:14:55;12.81;82.01
66873;HTU21D;53781;51.090;5.884;2022-11-15T02:18:48;12.85;81.95
66873;HTU21D;53781;51.090;5.884;2022-11-15T02:19:40;12.88;81.94
66873;HTU21D;53781;51.090;5.884;2022-11-15T02:21:37;12.87;81.86
66873;HTU21D;53781;51.090;5.884;2022-11-15T02:25:00;12.91;81.95
66873;HTU21D;53781;51.090;5.884;2022-11-15T02:27:23;12.90;81.82
66873;HTU21D;53781;51.090;5.884;2022-11-15T02:28:30;12.91;81.79
66873;HTU21D;53781;51.090;5.884;2022-11-15T02:32:44;12.93;81.73
66873;HTU21D;53781;51.090;5.884;2022-11-15T02:34:19;12.94;81.75
66873;HTU21D;53781;51.090;5.884;2022-11-15T02:35:09;12.94;81.71
66873;HTU21D;53781;51.090;5.884;2022-11-15T02:35:58;12.94;81.72
66873;HTU21D;53781;51.090;5.884;2022-11-15T02:36:42;12.95;81.72
66873;HTU21D;53781;51.090;5.884;2022-11-15T02:38:22;12.95;81.75
66873;HTU21D;53781;51.090;5.884;2022-11-15T02:39:03;12.95;81.74
66873;HTU21D;53781;51.090;5.884;2022-11-15T02:39:51;12.95;81.78
66873;HTU21D;53781;51.090;5.884;2022-11-15T02:40:38;12.95;81.77
66873;HTU21D;53781;51.090;5.884;2022-11-15T02:41:54;12.95;81.77
66873;HTU21D;53781;51.090;5.884;2022-11-15T02:42:39;12.96;81.84
66873;HTU21D;53781;51.090;5.884;2022-11-15T02:43:49;12.97;81.84
66873;HTU21D;53781;51.090;5.884;2022-11-15T02:44:45;12.95;81.91
66873;HTU21D;53781;51.090;5.884;2022-11-15T02:45:30;12.97;81.86
66873;HTU21D;53781;51.090;5.884;2022-11-15T02:46:18;12.97;81.85
66873;HTU21D;53781;51.090;5.884;2022-11-15T02:47:00;12.97;81.87
66873;HTU21D;53781;51.090;5.884;2022-11-15T02:47:51;12.95;81.91
66873;HTU21D;53781;51.090;5.884;2022-11-15T02:48:28;12.97;81.94
66873;HTU21D;53781;51.090;5.884;2022-11-15T02:49:02;12.97;81.88
66873;HTU21D;53781;51.090;5.884;2022-11-15T02:49:37;12.96;81.94
66873;HTU21D;53781;51.090;5.884;2022-11-15T02:50:16;12.95;81.96
66873;HTU21D;53781;51.090;5.884;2022-11-15T02:50:51;12.96;82.00
66873;HTU21D;53781;51.090;5.884;2022-11-15T02:51:25;12.96;81.98
66873;HTU21D;53781;51.090;5.884;2022-11-15T02:51:58;12.95;82.05
66873;HTU21D;53781;51.090;5.884;2022-11-15T02:52:32;12.97;82.11
66873;HTU21D;53781;51.090;5.884;2022-11-15T02:53:05;12.97;82.16
66873;HTU21D;53781;51.090;5.884;2022-11-15T02:53:40;12.99;82.10
66873;HTU21D;53781;51.090;5.884;2022-11-15T02:54:28;12.96;82.17
66873;HTU21D;53781;51.090;5.884;2022-11-15T02:55:02;12.99;82.20
66873;HTU21D;53781;51.090;5.884;2022-11-15T02:55:38;12.97;82.20
66873;HTU21D;53781;51.090;5.884;2022-11-15T02:56:14;12.99;82.26
66873;HTU21D;53781;51.090;5.884;2022-11-15T02:56:51;12.96;82.28
66873;HTU21D;53781;51.090;5.884;2022-11-15T02:57:45;12.96;82.37
66873;HTU21D;53781;51.090;5.884;2022-11-15T03:00:02;12.96;82.47
66873;HTU21D;53781;51.090;5.884;2022-11-15T03:00:49;12.96;82.58
66873;HTU21D;53781;51.090;5.884;2022-11-15T03:02:31;12.96;82.75
66873;HTU21D;53781;51.090;5.884;2022-11-15T03:05:15;12.99;82.91
66873;HTU21D;53781;51.090;5.884;2022-11-15T03:06:49;12.99;82.94
66873;HTU21D;53781;51.090;5.884;2022-11-15T03:07:43;12.97;82.94
66873;HTU21D;53781;51.090;5.884;2022-11-15T03:08:32;13.00;83.00
66873;HTU21D;53781;51.090;5.884;2022-11-15T03:09:43;13.00;83.06
66873;HTU21D;53781;51.090;5.884;2022-11-15T03:10:46;12.99;83.11
66873;HTU21D;53781;51.090;5.884;2022-11-15T03:11:23;12.99;83.13
66873;HTU21D;53781;51.090;5.884;2022-11-15T03:12:07;13.00;83.18
66873;HTU21D;53781;51.090;5.884;2022-11-15T03:12:55;12.99;83.18
66873;HTU21D;53781;51.090;5.884;2022-11-15T03:13:57;12.99;83.22
66873;HTU21D;53781;51.090;5.884;2022-11-15T03:14:37;12.97;83.23
66873;HTU21D;53781;51.090;5.884;2022-11-15T03:15:23;12.96;83.19
66873;HTU21D;53781;51.090;5.884;2022-11-15T03:17:01;12.96;83.17
66873;HTU21D;53781;51.090;5.884;2022-11-15T03:17:55;12.99;83.21
66873;HTU21D;53781;51.090;5.884;2022-11-15T03:18:33;12.99;83.23
66873;HTU21D;53781;51.090;5.884;2022-11-15T03:20:06;12.97;83.23
66873;HTU21D;53781;51.090;5.884;2022-11-15T03:20:42;12.97;83.22
66873;HTU21D;53781;51.090;5.884;2022-11-15T03:21:19;12.97;83.28
66873;HTU21D;53781;51.090;5.884;2022-11-15T03:21:56;12.97;83.25
66873;HTU21D;53781;51.090;5.884;2022-11-15T03:22:36;12.96;83.31
66873;HTU21D;53781;51.090;5.884;2022-11-15T03:23:13;12.97;83.26
66873;HTU21D;53781;51.090;5.884;2022-11-15T03:23:48;12.97;83.30
66873;HTU21D;53781;51.090;5.884;2022-11-15T03:24:25;12.96;83.30
66873;HTU21D;53781;51.090;5.884;2022-11-15T03:25:04;12.96;83.37
66873;HTU21D;53781;51.090;5.884;2022-11-15T03:25:45;12.97;83.30
66873;HTU21D;53781;51.090;5.884;2022-11-15T03:26:22;12.97;83.36
66873;HTU21D;53781;51.090;5.884;2022-11-15T03:26:59;12.95;83.32
66873;HTU21D;53781;51.090;5.884;2022-11-15T03:27:40;12.95;83.33
66873;HTU21D;53781;51.090;5.884;2022-11-15T03:28:25;12.96;83.29
66873;HTU21D;53781;51.090;5.884;2022-11-15T03:29:20;12.96;83.28
66873;HTU21D;53781;51.090;5.884;2022-11-15T03:30:05;12.95;83.22
66873;HTU21D;53781;51.090;5.884;2022-11-15T03:30:39;12.95;83.25
66873;HTU21D;53781;51.090;5.884;2022-11-15T03:31:16;12.95;83.22
66873;HTU21D;53781;51.090;5.884;2022-11-15T03:32:34;12.93;83.30
66873;HTU21D;53781;51.090;5.884;2022-11-15T03:33:11;12.94;83.26
66873;HTU21D;53781;51.090;5.884;2022-11-15T03:33:45;12.95;83.26
66873;HTU21D;53781;51.090;5.884;2022-11-15T03:34:32;12.94;83.27
66873;HTU21D;53781;51.090;5.884;2022-11-15T03:35:16;12.95;83.26
66873;HTU21D;53781;51.090;5.884;2022-11-15T03:35:52;12.94;83.34
66873;HTU21D;53781;51.090;5.884;2022-11-15T03:36:27;12.95;83.26
66873;HTU21D;53781;51.090;5.884;2022-11-15T03:37:01;12.95;83.30
66873;HTU21D;53781;51.090;5.884;2022-11-15T03:38:01;12.94;83.28
66873;HTU21D;53781;51.090;5.884;2022-11-15T03:38:41;12.95;83.25
66873;HTU21D;53781;51.090;5.884;2022-11-15T03:39:15;12.96;83.25
66873;HTU21D;53781;51.090;5.884;2022-11-15T03:39:49;12.96;83.21
66873;HTU21D;53781;51.090;5.884;2022-11-15T03:40:30;12.96;83.32
66873;HTU21D;53781;51.090;5.884;2022-11-15T03:41:16;12.99;83.26
66873;HTU21D;53781;51.090;5.884;2022-11-15T03:42:54;12.95;83.25
66873;HTU21D;53781;51.090;5.884;2022-11-15T03:43:36;12.97;83.20
66873;HTU21D;53781;51.090;5.884;2022-11-15T03:44:22;12.95;83.16
66873;HTU21D;53781;51.090;5.884;2022-11-15T03:45:12;12.97;83.13
66873;HTU21D;53781;51.090;5.884;2022-11-15T03:45:56;12.96;83.19
66873;HTU21D;53781;51.090;5.884;2022-11-15T03:47:05;12.96;83.14
66873;HTU21D;53781;51.090;5.884;2022-11-15T03:47:49;13.00;83.13
66873;HTU21D;53781;51.090;5.884;2022-11-15T03:48:30;12.99;83.05
66873;HTU21D;53781;51.090;5.884;2022-11-15T03:49:13;12.97;83.10
66873;HTU21D;53781;51.090;5.884;2022-11-15T03:49:55;12.97;83.04
66873;HTU21D;53781;51.090;5.884;2022-11-15T03:50:30;12.97;83.10
66873;HTU21D;53781;51.090;5.884;2022-11-15T03:51:05;12.96;83.07
66873;HTU21D;53781;51.090;5.884;2022-11-15T03:51:38;12.99;83.07
66873;HTU21D;53781;51.090;5.884;2022-11-15T03:52:12;12.96;83.00
66873;HTU21D;53781;51.090;5.884;2022-11-15T03:52:48;12.97;83.00
66873;HTU21D;53781;51.090;5.884;2022-11-15T03:53:21;12.99;83.00
66873;HTU21D;53781;51.090;5.884;2022-11-15T03:53:55;12.97;82.99
66873;HTU21D;53781;51.090;5.884;2022-11-15T03:54:28;12.97;83.08
66873;HTU21D;53781;51.090;5.884;2022-11-15T03:55:05;12.97;83.07
66873;HTU21D;53781;51.090;5.884;2022-11-15T03:55:39;12.97;83.06
66873;HTU21D;53781;51.090;5.884;2022-11-15T03:56:12;12.97;83.10
66873;HTU21D;53781;51.090;5.884;2022-11-15T03:56:46;13.00;83.07
66873;HTU21D;53781;51.090;5.884;2022-11-15T03:57:19;12.99;83.07
66873;HTU21D;53781;51.090;5.884;2022-11-15T03:57:57;13.03;82.99
66873;HTU21D;53781;51.090;5.884;2022-11-15T03:58:31;13.02;83.00
66873;HTU21D;53781;51.090;5.884;2022-11-15T03:59:05;13.00;83.03
66873;HTU21D;53781;51.090;5.884;2022-11-15T03:59:38;12.99;83.02
66873;HTU21D;53781;51.090;5.884;2022-11-15T04:00:12;12.99;83.04
66873;HTU21D;53781;51.090;5.884;2022-11-15T04:00:45;13.00;82.97
66873;HTU21D;53781;51.090;5.884;2022-11-15T04:01:18;13.01;83.06
66873;HTU21D;53781;51.090;5.884;2022-11-15T04:01:52;13.00;82.97
66873;HTU21D;53781;51.090;5.884;2022-11-15T04:02:25;12.99;83.02
66873;HTU21D;53781;51.090;5.884;2022-11-15T04:02:59;13.01;82.98
66873;HTU21D;53781;51.090;5.884;2022-11-15T04:03:32;13.00;83.00
66873;HTU21D;53781;51.090;5.884;2022-11-15T04:04:06;13.00;82.99
66873;HTU21D;53781;51.090;5.884;2022-11-15T04:04:39;13.01;82.99
66873;HTU21D;53781;51.090;5.884;2022-11-15T04:05:12;12.99;82.99
66873;HTU21D;53781;51.090;5.884;2022-11-15T04:05:46;12.99;83.01
66873;HTU21D;53781;51.090;5.884;2022-11-15T04:06:19;13.01;82.97
66873;HTU21D;53781;51.090;5.884;2022-11-15T04:06:53;13.01;83.03
66873;HTU21D;53781;51.090;5.884;2022-11-15T04:07:26;13.00;83.00
66873;HTU21D;53781;51.090;5.884;2022-11-15T04:07:59;13.01;83.00
66873;HTU21D;53781;51.090;5.884;2022-11-15T04:08:33;13.01;83.00
66873;HTU21D;53781;51.090;5.884;2022-11-15T04:09:06;13.01;83.07
66873;HTU21D;53781;51.090;5.884;2022-11-15T04:09:39;13.01;83.00
66873;HTU21D;53781;51.090;5.884;2022-11-15T04:10:31;13.00;82.94
66873;HTU21D;53781;51.090;5.884;2022-11-15T04:11:05;13.00;82.97
66873;HTU21D;53781;51.090;5.884;2022-11-15T04:11:38;13.02;82.96
66873;HTU21D;53781;51.090;5.884;2022-11-15T04:12:12;13.01;82.89
66873;HTU21D;53781;51.090;5.884;2022-11-15T04:12:45;12.99;82.97
66873;HTU21D;53781;51.090;5.884;2022-11-15T04:13:20;13.00;82.98